sensor_id;sensor_type;location;lat;lon;timestamp;P1;durP1;ratioP1;P2;durP2;ratioP2
13406;SDS011;6774;48.208;10.766;2024-01-06T00:01:21;5.20;;;4.90;;
13406;SDS011;6774;48.208;10.766;2024-01-06T00:03:49;5.10;;;4.70;;
13406;SDS011;6774;48.208;10.766;2024-01-06T00:06:19;4.70;;;4.40;;
13406;SDS011;6774;48.208;10.766;2024-01-06T00:08:47;5.47;;;5.07;;
13406;SDS011;6774;48.208;10.766;2024-01-06T00:11:20;5.33;;;4.83;;
13406;SDS011;6774;48.208;10.766;2024-01-06T00:16:34;4.37;;;4.10;;
13406;SDS011;6774;48.208;10.766;2024-01-06T00:19:01;5.40;;;5.00;;
13406;SDS011;6774;48.208;10.766;2024-01-06T00:21:31;5.60;;;5.30;;
13406;SDS011;6774;48.208;10.766;2024-01-06T00:23:59;6.53;;;6.03;;
13406;SDS011;6774;48.208;10.766;2024-01-06T00:26:27;6.27;;;5.87;;
13406;SDS011;6774;48.208;10.766;2024-01-06T00:28:55;6.57;;;6.07;;
13406;SDS011;6774;48.208;10.766;2024-01-06T00:31:23;5.50;;;5.17;;
13406;SDS011;6774;48.208;10.766;2024-01-06T00:33:51;6.17;;;5.77;;
13406;SDS011;6774;48.208;10.766;2024-01-06T00:36:19;6.37;;;5.97;;
13406;SDS011;6774;48.208;10.766;2024-01-06T00:38:49;5.27;;;4.87;;
13406;SDS011;6774;48.208;10.766;2024-01-06T00:41:16;4.53;;;4.23;;
13406;SDS011;6774;48.208;10.766;2024-01-06T00:43:44;5.23;;;4.93;;
13406;SDS011;6774;48.208;10.766;2024-01-06T00:46:12;6.60;;;6.20;;
13406;SDS011;6774;48.208;10.766;2024-01-06T00:48:40;5.27;;;4.87;;
13406;SDS011;6774;48.208;10.766;2024-01-06T00:51:08;7.87;;;7.27;;
13406;SDS011;6774;48.208;10.766;2024-01-06T00:53:36;8.30;;;7.73;;
13406;SDS011;6774;48.208;10.766;2024-01-06T00:56:05;6.30;;;5.90;;
13406;SDS011;6774;48.208;10.766;2024-01-06T00:58:33;6.43;;;6.03;;
13406;SDS011;6774;48.208;10.766;2024-01-06T01:01:00;6.33;;;5.93;;
13406;SDS011;6774;48.208;10.766;2024-01-06T01:03:29;7.30;;;6.83;;
13406;SDS011;6774;48.208;10.766;2024-01-06T01:05:57;7.13;;;6.73;;
13406;SDS011;6774;48.208;10.766;2024-01-06T01:08:25;5.57;;;5.27;;
13406;SDS011;6774;48.208;10.766;2024-01-06T01:10:53;7.07;;;6.57;;
13406;SDS011;6774;48.208;10.766;2024-01-06T01:13:22;6.13;;;5.63;;
13406;SDS011;6774;48.208;10.766;2024-01-06T01:15:50;6.77;;;6.30;;
13406;SDS011;6774;48.208;10.766;2024-01-06T01:18:18;6.47;;;6.07;;
13406;SDS011;6774;48.208;10.766;2024-01-06T01:20:46;7.37;;;6.87;;
13406;SDS011;6774;48.208;10.766;2024-01-06T01:23:13;7.33;;;6.93;;
13406;SDS011;6774;48.208;10.766;2024-01-06T01:25:41;7.13;;;6.67;;
13406;SDS011;6774;48.208;10.766;2024-01-06T01:28:09;6.90;;;6.40;;
13406;SDS011;6774;48.208;10.766;2024-01-06T01:30:38;5.90;;;5.50;;
13406;SDS011;6774;48.208;10.766;2024-01-06T01:33:06;6.43;;;6.10;;
13406;SDS011;6774;48.208;10.766;2024-01-06T01:35:34;6.23;;;5.80;;
13406;SDS011;6774;48.208;10.766;2024-01-06T01:38:02;5.67;;;5.27;;
13406;SDS011;6774;48.208;10.766;2024-01-06T01:40:30;4.70;;;4.50;;
13406;SDS011;6774;48.208;10.766;2024-01-06T01:42:58;4.20;;;4.00;;
13406;SDS011;6774;48.208;10.766;2024-01-06T01:45:26;5.10;;;4.80;;
13406;SDS011;6774;48.208;10.766;2024-01-06T01:47:55;7.33;;;6.83;;
13406;SDS011;6774;48.208;10.766;2024-01-06T01:50:23;5.10;;;4.80;;
13406;SDS011;6774;48.208;10.766;2024-01-06T01:52:54;3.83;;;3.63;;
13406;SDS011;6774;48.208;10.766;2024-01-06T01:55:22;3.67;;;3.37;;
13406;SDS011;6774;48.208;10.766;2024-01-06T01:57:50;3.20;;;2.87;;
13406;SDS011;6774;48.208;10.766;2024-01-06T02:00:18;1.90;;;1.80;;
13406;SDS011;6774;48.208;10.766;2024-01-06T02:02:46;2.00;;;1.90;;
13406;SDS011;6774;48.208;10.766;2024-01-06T02:05:15;1.77;;;1.67;;
13406;SDS011;6774;48.208;10.766;2024-01-06T02:07:43;1.77;;;1.67;;
13406;SDS011;6774;48.208;10.766;2024-01-06T02:10:10;2.40;;;1.70;;
13406;SDS011;6774;48.208;10.766;2024-01-06T02:12:38;1.47;;;1.37;;
13406;SDS011;6774;48.208;10.766;2024-01-06T02:15:06;1.50;;;1.40;;
13406;SDS011;6774;48.208;10.766;2024-01-06T02:17:34;1.83;;;1.67;;
13406;SDS011;6774;48.208;10.766;2024-01-06T02:20:02;1.70;;;1.60;;
13406;SDS011;6774;48.208;10.766;2024-01-06T02:22:34;1.50;;;1.40;;
13406;SDS011;6774;48.208;10.766;2024-01-06T02:25:04;1.90;;;1.70;;
13406;SDS011;6774;48.208;10.766;2024-01-06T02:27:39;1.30;;;1.30;;
13406;SDS011;6774;48.208;10.766;2024-01-06T02:30:07;1.50;;;1.20;;
13406;SDS011;6774;48.208;10.766;2024-01-06T02:32:35;0.70;;;0.70;;
13406;SDS011;6774;48.208;10.766;2024-01-06T02:35:03;0.87;;;0.60;;
13406;SDS011;6774;48.208;10.766;2024-01-06T02:37:31;0.50;;;0.30;;
13406;SDS011;6774;48.208;10.766;2024-01-06T02:40:00;0.50;;;0.50;;
13406;SDS011;6774;48.208;10.766;2024-01-06T02:42:28;0.43;;;0.43;;
13406;SDS011;6774;48.208;10.766;2024-01-06T02:44:56;0.40;;;0.37;;
13406;SDS011;6774;48.208;10.766;2024-01-06T02:47:23;0.63;;;0.30;;
13406;SDS011;6774;48.208;10.766;2024-01-06T02:49:51;0.50;;;0.20;;
13406;SDS011;6774;48.208;10.766;2024-01-06T02:52:19;0.40;;;0.20;;
13406;SDS011;6774;48.208;10.766;2024-01-06T02:54:49;0.73;;;0.43;;
13406;SDS011;6774;48.208;10.766;2024-01-06T02:57:18;0.30;;;0.30;;
13406;SDS011;6774;48.208;10.766;2024-01-06T02:59:46;0.80;;;0.10;;
13406;SDS011;6774;48.208;10.766;2024-01-06T03:02:13;0.10;;;0.10;;
13406;SDS011;6774;48.208;10.766;2024-01-06T03:04:41;0.33;;;0.33;;
13406;SDS011;6774;48.208;10.766;2024-01-06T03:07:09;0.50;;;0.37;;
13406;SDS011;6774;48.208;10.766;2024-01-06T03:09:37;0.23;;;0.20;;
13406;SDS011;6774;48.208;10.766;2024-01-06T03:12:05;0.13;;;0.10;;
13406;SDS011;6774;48.208;10.766;2024-01-06T03:14:35;0.20;;;0.20;;
13406;SDS011;6774;48.208;10.766;2024-01-06T03:17:03;0.23;;;0.20;;
13406;SDS011;6774;48.208;10.766;2024-01-06T03:19:31;0.40;;;0.17;;
13406;SDS011;6774;48.208;10.766;2024-01-06T03:21:59;2.10;;;0.30;;
13406;SDS011;6774;48.208;10.766;2024-01-06T03:24:27;0.30;;;0.30;;
13406;SDS011;6774;48.208;10.766;2024-01-06T03:26:55;3.07;;;0.43;;
13406;SDS011;6774;48.208;10.766;2024-01-06T03:29:23;0.50;;;0.50;;
13406;SDS011;6774;48.208;10.766;2024-01-06T03:31:52;0.50;;;0.50;;
13406;SDS011;6774;48.208;10.766;2024-01-06T03:34:20;1.13;;;0.70;;
13406;SDS011;6774;48.208;10.766;2024-01-06T03:36:48;1.47;;;0.77;;
13406;SDS011;6774;48.208;10.766;2024-01-06T03:39:16;0.50;;;0.50;;
13406;SDS011;6774;48.208;10.766;2024-01-06T03:41:43;2.77;;;0.53;;
13406;SDS011;6774;48.208;10.766;2024-01-06T03:44:11;0.83;;;0.50;;
13406;SDS011;6774;48.208;10.766;2024-01-06T03:46:39;0.97;;;0.70;;
13406;SDS011;6774;48.208;10.766;2024-01-06T03:49:08;0.77;;;0.70;;
13406;SDS011;6774;48.208;10.766;2024-01-06T03:51:36;2.60;;;1.00;;
13406;SDS011;6774;48.208;10.766;2024-01-06T03:54:04;1.17;;;0.53;;
13406;SDS011;6774;48.208;10.766;2024-01-06T03:56:31;1.80;;;0.60;;
13406;SDS011;6774;48.208;10.766;2024-01-06T03:58:59;0.93;;;0.93;;
13406;SDS011;6774;48.208;10.766;2024-01-06T04:01:27;0.80;;;0.77;;
13406;SDS011;6774;48.208;10.766;2024-01-06T04:03:55;1.10;;;1.00;;
13406;SDS011;6774;48.208;10.766;2024-01-06T04:06:25;0.53;;;0.40;;
13406;SDS011;6774;48.208;10.766;2024-01-06T04:08:53;1.90;;;1.80;;
13406;SDS011;6774;48.208;10.766;2024-01-06T04:11:21;2.10;;;0.87;;
13406;SDS011;6774;48.208;10.766;2024-01-06T04:13:49;1.00;;;0.77;;
13406;SDS011;6774;48.208;10.766;2024-01-06T04:16:16;2.10;;;0.40;;
13406;SDS011;6774;48.208;10.766;2024-01-06T04:18:44;2.23;;;1.17;;
13406;SDS011;6774;48.208;10.766;2024-01-06T04:21:12;1.00;;;0.60;;
13406;SDS011;6774;48.208;10.766;2024-01-06T04:23:41;1.17;;;1.03;;
13406;SDS011;6774;48.208;10.766;2024-01-06T04:26:09;1.40;;;1.00;;
13406;SDS011;6774;48.208;10.766;2024-01-06T04:28:37;1.47;;;0.97;;
13406;SDS011;6774;48.208;10.766;2024-01-06T04:31:05;1.00;;;0.83;;
13406;SDS011;6774;48.208;10.766;2024-01-06T04:33:37;1.23;;;1.07;;
13406;SDS011;6774;48.208;10.766;2024-01-06T04:36:07;0.60;;;0.60;;
13406;SDS011;6774;48.208;10.766;2024-01-06T04:38:35;1.20;;;0.60;;
13406;SDS011;6774;48.208;10.766;2024-01-06T04:41:04;1.23;;;1.13;;
13406;SDS011;6774;48.208;10.766;2024-01-06T04:43:32;2.83;;;1.23;;
13406;SDS011;6774;48.208;10.766;2024-01-06T04:45:59;1.70;;;0.90;;
13406;SDS011;6774;48.208;10.766;2024-01-06T04:48:27;0.70;;;0.70;;
13406;SDS011;6774;48.208;10.766;2024-01-06T04:50:55;1.50;;;1.40;;
13406;SDS011;6774;48.208;10.766;2024-01-06T04:53:23;0.47;;;0.47;;
13406;SDS011;6774;48.208;10.766;2024-01-06T04:55:51;1.27;;;0.77;;
13406;SDS011;6774;48.208;10.766;2024-01-06T04:58:20;1.20;;;0.90;;
13406;SDS011;6774;48.208;10.766;2024-01-06T05:00:47;2.00;;;0.93;;
13406;SDS011;6774;48.208;10.766;2024-01-06T05:03:18;0.63;;;0.53;;
13406;SDS011;6774;48.208;10.766;2024-01-06T05:05:45;1.47;;;1.17;;
13406;SDS011;6774;48.208;10.766;2024-01-06T05:08:13;3.60;;;0.80;;
13406;SDS011;6774;48.208;10.766;2024-01-06T05:10:41;2.10;;;1.33;;
13406;SDS011;6774;48.208;10.766;2024-01-06T05:13:09;4.83;;;1.60;;
13406;SDS011;6774;48.208;10.766;2024-01-06T05:15:38;2.10;;;1.20;;
13406;SDS011;6774;48.208;10.766;2024-01-06T05:18:06;1.37;;;1.23;;
13406;SDS011;6774;48.208;10.766;2024-01-06T05:20:34;0.90;;;0.90;;
13406;SDS011;6774;48.208;10.766;2024-01-06T05:23:02;0.97;;;0.87;;
13406;SDS011;6774;48.208;10.766;2024-01-06T05:25:30;1.17;;;0.80;;
13406;SDS011;6774;48.208;10.766;2024-01-06T05:27:58;1.13;;;0.73;;
13406;SDS011;6774;48.208;10.766;2024-01-06T05:30:26;0.90;;;0.77;;
13406;SDS011;6774;48.208;10.766;2024-01-06T05:32:55;0.60;;;0.60;;
13406;SDS011;6774;48.208;10.766;2024-01-06T05:35:23;0.80;;;0.80;;
13406;SDS011;6774;48.208;10.766;2024-01-06T05:37:51;1.73;;;1.57;;
13406;SDS011;6774;48.208;10.766;2024-01-06T05:40:19;1.20;;;0.80;;
13406;SDS011;6774;48.208;10.766;2024-01-06T05:42:47;0.73;;;0.70;;
13406;SDS011;6774;48.208;10.766;2024-01-06T05:45:14;0.43;;;0.30;;
13406;SDS011;6774;48.208;10.766;2024-01-06T05:47:42;2.60;;;1.37;;
13406;SDS011;6774;48.208;10.766;2024-01-06T05:50:14;0.80;;;0.60;;
13406;SDS011;6774;48.208;10.766;2024-01-06T05:52:43;0.80;;;0.80;;
13406;SDS011;6774;48.208;10.766;2024-01-06T05:55:10;0.60;;;0.60;;
13406;SDS011;6774;48.208;10.766;2024-01-06T05:57:38;0.70;;;0.67;;
13406;SDS011;6774;48.208;10.766;2024-01-06T06:00:07;0.73;;;0.73;;
13406;SDS011;6774;48.208;10.766;2024-01-06T06:02:39;0.83;;;0.80;;
13406;SDS011;6774;48.208;10.766;2024-01-06T06:05:07;2.40;;;1.10;;
13406;SDS011;6774;48.208;10.766;2024-01-06T06:07:37;1.57;;;0.77;;
13406;SDS011;6774;48.208;10.766;2024-01-06T06:10:07;0.63;;;0.30;;
13406;SDS011;6774;48.208;10.766;2024-01-06T06:12:36;0.70;;;0.70;;
13406;SDS011;6774;48.208;10.766;2024-01-06T06:15:05;1.43;;;1.13;;
13406;SDS011;6774;48.208;10.766;2024-01-06T06:17:35;2.70;;;0.87;;
13406;SDS011;6774;48.208;10.766;2024-01-06T06:20:03;1.13;;;0.80;;
13406;SDS011;6774;48.208;10.766;2024-01-06T06:22:33;1.53;;;1.43;;
13406;SDS011;6774;48.208;10.766;2024-01-06T06:25:02;2.33;;;0.93;;
13406;SDS011;6774;48.208;10.766;2024-01-06T06:27:30;1.03;;;0.80;;
13406;SDS011;6774;48.208;10.766;2024-01-06T06:29:58;0.53;;;0.33;;
13406;SDS011;6774;48.208;10.766;2024-01-06T06:32:26;1.67;;;1.57;;
13406;SDS011;6774;48.208;10.766;2024-01-06T06:34:54;0.60;;;0.60;;
13406;SDS011;6774;48.208;10.766;2024-01-06T06:37:22;0.70;;;0.67;;
13406;SDS011;6774;48.208;10.766;2024-01-06T06:39:50;0.63;;;0.50;;
13406;SDS011;6774;48.208;10.766;2024-01-06T06:42:19;0.93;;;0.70;;
13406;SDS011;6774;48.208;10.766;2024-01-06T06:44:47;1.47;;;0.70;;
13406;SDS011;6774;48.208;10.766;2024-01-06T06:47:15;1.30;;;1.20;;
13406;SDS011;6774;48.208;10.766;2024-01-06T06:49:43;0.83;;;0.50;;
13406;SDS011;6774;48.208;10.766;2024-01-06T06:52:11;1.73;;;1.00;;
13406;SDS011;6774;48.208;10.766;2024-01-06T06:54:39;0.87;;;0.83;;
13406;SDS011;6774;48.208;10.766;2024-01-06T06:57:07;2.23;;;1.10;;
13406;SDS011;6774;48.208;10.766;2024-01-06T06:59:36;1.73;;;0.90;;
13406;SDS011;6774;48.208;10.766;2024-01-06T07:02:04;0.97;;;0.80;;
13406;SDS011;6774;48.208;10.766;2024-01-06T07:04:33;2.00;;;1.57;;
13406;SDS011;6774;48.208;10.766;2024-01-06T07:07:00;1.43;;;1.33;;
13406;SDS011;6774;48.208;10.766;2024-01-06T07:09:28;1.43;;;1.33;;
13406;SDS011;6774;48.208;10.766;2024-01-06T07:11:56;1.53;;;1.40;;
13406;SDS011;6774;48.208;10.766;2024-01-06T07:14:24;1.67;;;1.57;;
13406;SDS011;6774;48.208;10.766;2024-01-06T07:16:54;2.83;;;1.23;;
13406;SDS011;6774;48.208;10.766;2024-01-06T07:19:21;1.77;;;1.67;;
13406;SDS011;6774;48.208;10.766;2024-01-06T07:21:49;2.73;;;1.77;;
13406;SDS011;6774;48.208;10.766;2024-01-06T07:24:17;1.63;;;1.53;;
13406;SDS011;6774;48.208;10.766;2024-01-06T07:26:45;1.80;;;1.20;;
13406;SDS011;6774;48.208;10.766;2024-01-06T07:29:13;2.30;;;2.10;;
13406;SDS011;6774;48.208;10.766;2024-01-06T07:31:41;2.17;;;1.97;;
13406;SDS011;6774;48.208;10.766;2024-01-06T07:34:10;1.83;;;1.73;;
13406;SDS011;6774;48.208;10.766;2024-01-06T07:36:38;1.50;;;1.40;;
13406;SDS011;6774;48.208;10.766;2024-01-06T07:39:06;2.97;;;1.63;;
13406;SDS011;6774;48.208;10.766;2024-01-06T07:41:34;1.87;;;1.77;;
13406;SDS011;6774;48.208;10.766;2024-01-06T07:44:01;4.27;;;2.87;;
13406;SDS011;6774;48.208;10.766;2024-01-06T07:46:29;1.33;;;1.20;;
13406;SDS011;6774;48.208;10.766;2024-01-06T07:48:59;2.73;;;1.93;;
13406;SDS011;6774;48.208;10.766;2024-01-06T07:51:29;2.80;;;1.97;;
13406;SDS011;6774;48.208;10.766;2024-01-06T07:53:56;1.97;;;1.77;;
13406;SDS011;6774;48.208;10.766;2024-01-06T07:56:24;2.87;;;2.23;;
13406;SDS011;6774;48.208;10.766;2024-01-06T07:58:52;3.77;;;2.60;;
13406;SDS011;6774;48.208;10.766;2024-01-06T08:01:21;3.53;;;1.30;;
13406;SDS011;6774;48.208;10.766;2024-01-06T08:03:49;2.10;;;1.97;;
13406;SDS011;6774;48.208;10.766;2024-01-06T08:06:17;3.80;;;2.70;;
13406;SDS011;6774;48.208;10.766;2024-01-06T08:08:46;2.30;;;2.20;;
13406;SDS011;6774;48.208;10.766;2024-01-06T08:11:14;2.27;;;1.70;;
13406;SDS011;6774;48.208;10.766;2024-01-06T08:13:42;1.93;;;1.77;;
13406;SDS011;6774;48.208;10.766;2024-01-06T08:16:10;3.60;;;2.27;;
13406;SDS011;6774;48.208;10.766;2024-01-06T08:18:38;2.20;;;2.00;;
13406;SDS011;6774;48.208;10.766;2024-01-06T08:21:06;2.27;;;1.77;;
13406;SDS011;6774;48.208;10.766;2024-01-06T08:23:34;3.23;;;1.60;;
13406;SDS011;6774;48.208;10.766;2024-01-06T08:26:04;2.43;;;1.40;;
13406;SDS011;6774;48.208;10.766;2024-01-06T08:28:37;2.30;;;2.20;;
13406;SDS011;6774;48.208;10.766;2024-01-06T08:31:04;2.63;;;1.60;;
13406;SDS011;6774;48.208;10.766;2024-01-06T08:33:32;3.27;;;2.93;;
13406;SDS011;6774;48.208;10.766;2024-01-06T08:36:00;4.17;;;3.33;;
13406;SDS011;6774;48.208;10.766;2024-01-06T08:38:29;3.17;;;1.60;;
13406;SDS011;6774;48.208;10.766;2024-01-06T08:40:57;1.50;;;1.40;;
13406;SDS011;6774;48.208;10.766;2024-01-06T08:43:26;2.30;;;2.10;;
13406;SDS011;6774;48.208;10.766;2024-01-06T08:45:53;2.40;;;1.67;;
13406;SDS011;6774;48.208;10.766;2024-01-06T08:48:21;8.23;;;3.97;;
13406;SDS011;6774;48.208;10.766;2024-01-06T08:50:49;2.27;;;2.13;;
13406;SDS011;6774;48.208;10.766;2024-01-06T08:53:17;2.17;;;1.97;;
13406;SDS011;6774;48.208;10.766;2024-01-06T08:55:45;2.53;;;1.90;;
13406;SDS011;6774;48.208;10.766;2024-01-06T08:58:13;2.90;;;2.70;;
13406;SDS011;6774;48.208;10.766;2024-01-06T09:00:42;1.70;;;1.60;;
13406;SDS011;6774;48.208;10.766;2024-01-06T09:03:10;3.63;;;1.87;;
13406;SDS011;6774;48.208;10.766;2024-01-06T09:05:39;2.13;;;1.40;;
13406;SDS011;6774;48.208;10.766;2024-01-06T09:08:07;2.10;;;1.90;;
13406;SDS011;6774;48.208;10.766;2024-01-06T09:10:35;2.13;;;1.97;;
13406;SDS011;6774;48.208;10.766;2024-01-06T09:13:03;1.47;;;1.33;;
13406;SDS011;6774;48.208;10.766;2024-01-06T09:15:31;2.87;;;2.63;;
13406;SDS011;6774;48.208;10.766;2024-01-06T09:18:00;1.80;;;1.70;;
13406;SDS011;6774;48.208;10.766;2024-01-06T09:20:29;2.73;;;2.40;;
13406;SDS011;6774;48.208;10.766;2024-01-06T09:22:57;2.57;;;2.37;;
13406;SDS011;6774;48.208;10.766;2024-01-06T09:25:24;2.00;;;1.83;;
13406;SDS011;6774;48.208;10.766;2024-01-06T09:27:52;2.00;;;1.90;;
13406;SDS011;6774;48.208;10.766;2024-01-06T09:30:20;2.13;;;2.03;;
13406;SDS011;6774;48.208;10.766;2024-01-06T09:32:48;2.23;;;2.03;;
13406;SDS011;6774;48.208;10.766;2024-01-06T09:35:17;1.83;;;1.73;;
13406;SDS011;6774;48.208;10.766;2024-01-06T09:37:45;1.57;;;1.43;;
13406;SDS011;6774;48.208;10.766;2024-01-06T09:40:13;2.30;;;2.20;;
13406;SDS011;6774;48.208;10.766;2024-01-06T09:42:41;4.30;;;3.27;;
13406;SDS011;6774;48.208;10.766;2024-01-06T09:45:09;3.10;;;2.47;;
13406;SDS011;6774;48.208;10.766;2024-01-06T09:47:37;2.00;;;1.70;;
13406;SDS011;6774;48.208;10.766;2024-01-06T09:50:08;1.40;;;1.30;;
13406;SDS011;6774;48.208;10.766;2024-01-06T09:52:38;2.20;;;2.10;;
13406;SDS011;6774;48.208;10.766;2024-01-06T09:55:08;2.40;;;2.23;;
13406;SDS011;6774;48.208;10.766;2024-01-06T09:57:38;2.10;;;2.00;;
13406;SDS011;6774;48.208;10.766;2024-01-06T10:00:06;4.37;;;2.60;;
13406;SDS011;6774;48.208;10.766;2024-01-06T10:02:38;2.00;;;1.53;;
13406;SDS011;6774;48.208;10.766;2024-01-06T10:05:07;2.63;;;1.93;;
13406;SDS011;6774;48.208;10.766;2024-01-06T10:07:35;1.70;;;1.60;;
13406;SDS011;6774;48.208;10.766;2024-01-06T10:10:05;4.20;;;3.73;;
13406;SDS011;6774;48.208;10.766;2024-01-06T10:12:35;2.63;;;2.43;;
13406;SDS011;6774;48.208;10.766;2024-01-06T10:15:05;2.57;;;1.90;;
13406;SDS011;6774;48.208;10.766;2024-01-06T10:17:34;3.23;;;2.17;;
13406;SDS011;6774;48.208;10.766;2024-01-06T10:20:05;2.03;;;1.80;;
13406;SDS011;6774;48.208;10.766;2024-01-06T10:22:35;2.10;;;1.90;;
13406;SDS011;6774;48.208;10.766;2024-01-06T10:25:06;2.40;;;2.20;;
13406;SDS011;6774;48.208;10.766;2024-01-06T10:27:34;2.80;;;2.60;;
13406;SDS011;6774;48.208;10.766;2024-01-06T10:30:03;4.37;;;2.23;;
13406;SDS011;6774;48.208;10.766;2024-01-06T10:32:31;5.07;;;3.20;;
13406;SDS011;6774;48.208;10.766;2024-01-06T10:34:59;4.03;;;2.70;;
13406;SDS011;6774;48.208;10.766;2024-01-06T10:37:29;1.67;;;1.57;;
13406;SDS011;6774;48.208;10.766;2024-01-06T10:40:08;3.03;;;2.83;;
13406;SDS011;6774;48.208;10.766;2024-01-06T10:42:38;4.00;;;1.70;;
13406;SDS011;6774;48.208;10.766;2024-01-06T10:45:09;5.43;;;2.17;;
13406;SDS011;6774;48.208;10.766;2024-01-06T10:47:39;3.87;;;2.63;;
13406;SDS011;6774;48.208;10.766;2024-01-06T10:50:07;3.27;;;2.17;;
13406;SDS011;6774;48.208;10.766;2024-01-06T10:52:37;2.60;;;2.40;;
13406;SDS011;6774;48.208;10.766;2024-01-06T10:55:07;2.50;;;2.30;;
13406;SDS011;6774;48.208;10.766;2024-01-06T10:57:36;2.57;;;2.27;;
13406;SDS011;6774;48.208;10.766;2024-01-06T11:00:05;2.07;;;1.97;;
13406;SDS011;6774;48.208;10.766;2024-01-06T11:02:36;5.13;;;2.87;;
13406;SDS011;6774;48.208;10.766;2024-01-06T11:05:04;3.80;;;3.60;;
13406;SDS011;6774;48.208;10.766;2024-01-06T11:07:34;3.90;;;3.50;;
13406;SDS011;6774;48.208;10.766;2024-01-06T11:10:04;3.33;;;3.13;;
13406;SDS011;6774;48.208;10.766;2024-01-06T11:12:37;4.07;;;3.00;;
13406;SDS011;6774;48.208;10.766;2024-01-06T11:15:05;8.67;;;4.57;;
13406;SDS011;6774;48.208;10.766;2024-01-06T11:17:49;3.20;;;3.00;;
13406;SDS011;6774;48.208;10.766;2024-01-06T11:20:20;3.00;;;2.70;;
13406;SDS011;6774;48.208;10.766;2024-01-06T11:22:48;3.53;;;3.23;;
13406;SDS011;6774;48.208;10.766;2024-01-06T11:25:16;2.67;;;2.47;;
13406;SDS011;6774;48.208;10.766;2024-01-06T11:27:48;2.87;;;2.67;;
13406;SDS011;6774;48.208;10.766;2024-01-06T11:30:20;4.97;;;3.20;;
13406;SDS011;6774;48.208;10.766;2024-01-06T11:32:50;4.67;;;3.80;;
13406;SDS011;6774;48.208;10.766;2024-01-06T11:35:20;3.63;;;3.43;;
13406;SDS011;6774;48.208;10.766;2024-01-06T11:37:51;4.10;;;3.90;;
13406;SDS011;6774;48.208;10.766;2024-01-06T11:40:22;2.90;;;2.80;;
13406;SDS011;6774;48.208;10.766;2024-01-06T11:43:01;2.53;;;2.33;;
13406;SDS011;6774;48.208;10.766;2024-01-06T11:45:32;4.90;;;2.33;;
13406;SDS011;6774;48.208;10.766;2024-01-06T11:48:01;1.60;;;1.50;;
13406;SDS011;6774;48.208;10.766;2024-01-06T11:50:31;2.73;;;2.47;;
13406;SDS011;6774;48.208;10.766;2024-01-06T11:53:01;2.17;;;2.07;;
13406;SDS011;6774;48.208;10.766;2024-01-06T11:55:29;2.67;;;2.17;;
13406;SDS011;6774;48.208;10.766;2024-01-06T11:58:00;2.67;;;2.47;;
13406;SDS011;6774;48.208;10.766;2024-01-06T12:00:30;3.17;;;2.33;;
13406;SDS011;6774;48.208;10.766;2024-01-06T12:02:59;3.23;;;1.60;;
13406;SDS011;6774;48.208;10.766;2024-01-06T12:05:28;2.10;;;2.00;;
13406;SDS011;6774;48.208;10.766;2024-01-06T12:07:56;1.73;;;1.63;;
13406;SDS011;6774;48.208;10.766;2024-01-06T12:10:25;1.80;;;1.70;;
13406;SDS011;6774;48.208;10.766;2024-01-06T12:12:55;1.47;;;1.37;;
13406;SDS011;6774;48.208;10.766;2024-01-06T12:15:27;2.93;;;2.27;;
13406;SDS011;6774;48.208;10.766;2024-01-06T12:17:56;2.43;;;1.80;;
13406;SDS011;6774;48.208;10.766;2024-01-06T12:20:25;1.57;;;1.47;;
13406;SDS011;6774;48.208;10.766;2024-01-06T12:22:55;3.07;;;1.97;;
13406;SDS011;6774;48.208;10.766;2024-01-06T12:25:23;1.83;;;1.73;;
13406;SDS011;6774;48.208;10.766;2024-01-06T12:27:55;1.37;;;1.27;;
13406;SDS011;6774;48.208;10.766;2024-01-06T12:30:23;1.73;;;1.63;;
13406;SDS011;6774;48.208;10.766;2024-01-06T12:32:53;2.27;;;2.07;;
13406;SDS011;6774;48.208;10.766;2024-01-06T12:35:21;4.80;;;2.37;;
13406;SDS011;6774;48.208;10.766;2024-01-06T12:37:49;4.57;;;3.23;;
13406;SDS011;6774;48.208;10.766;2024-01-06T12:40:19;2.80;;;2.60;;
13406;SDS011;6774;48.208;10.766;2024-01-06T12:42:48;2.77;;;2.57;;
13406;SDS011;6774;48.208;10.766;2024-01-06T12:45:16;2.67;;;2.47;;
13406;SDS011;6774;48.208;10.766;2024-01-06T12:47:43;4.73;;;2.90;;
13406;SDS011;6774;48.208;10.766;2024-01-06T12:50:13;5.37;;;3.70;;
13406;SDS011;6774;48.208;10.766;2024-01-06T12:52:41;3.23;;;3.03;;
13406;SDS011;6774;48.208;10.766;2024-01-06T12:55:09;3.80;;;2.97;;
13406;SDS011;6774;48.208;10.766;2024-01-06T12:57:37;7.97;;;4.07;;
13406;SDS011;6774;48.208;10.766;2024-01-06T13:00:05;2.30;;;2.20;;
13406;SDS011;6774;48.208;10.766;2024-01-06T13:02:35;3.80;;;3.50;;
13406;SDS011;6774;48.208;10.766;2024-01-06T13:05:03;5.90;;;4.17;;
13406;SDS011;6774;48.208;10.766;2024-01-06T13:07:33;3.50;;;3.30;;
13406;SDS011;6774;48.208;10.766;2024-01-06T13:10:01;4.87;;;4.57;;
13406;SDS011;6774;48.208;10.766;2024-01-06T13:12:29;5.73;;;5.10;;
13406;SDS011;6774;48.208;10.766;2024-01-06T13:14:56;2.87;;;2.50;;
13406;SDS011;6774;48.208;10.766;2024-01-06T13:17:25;4.80;;;4.50;;
13406;SDS011;6774;48.208;10.766;2024-01-06T13:19:53;3.93;;;2.83;;
13406;SDS011;6774;48.208;10.766;2024-01-06T13:22:21;2.70;;;2.50;;
13406;SDS011;6774;48.208;10.766;2024-01-06T13:24:50;2.87;;;2.67;;
13406;SDS011;6774;48.208;10.766;2024-01-06T13:27:19;4.23;;;3.70;;
13406;SDS011;6774;48.208;10.766;2024-01-06T13:29:48;6.20;;;4.13;;
13406;SDS011;6774;48.208;10.766;2024-01-06T13:32:16;3.23;;;3.03;;
13406;SDS011;6774;48.208;10.766;2024-01-06T13:34:45;2.93;;;2.73;;
13406;SDS011;6774;48.208;10.766;2024-01-06T13:37:13;3.90;;;3.70;;
13406;SDS011;6774;48.208;10.766;2024-01-06T13:39:41;2.83;;;2.70;;
13406;SDS011;6774;48.208;10.766;2024-01-06T13:42:11;2.67;;;2.47;;
13406;SDS011;6774;48.208;10.766;2024-01-06T13:44:42;2.97;;;2.83;;
13406;SDS011;6774;48.208;10.766;2024-01-06T13:47:11;4.30;;;4.00;;
13406;SDS011;6774;48.208;10.766;2024-01-06T13:49:39;5.30;;;4.13;;
13406;SDS011;6774;48.208;10.766;2024-01-06T13:52:07;3.50;;;3.30;;
13406;SDS011;6774;48.208;10.766;2024-01-06T13:54:35;2.73;;;2.53;;
13406;SDS011;6774;48.208;10.766;2024-01-06T13:57:03;3.00;;;2.80;;
13406;SDS011;6774;48.208;10.766;2024-01-06T13:59:32;2.10;;;2.00;;
13406;SDS011;6774;48.208;10.766;2024-01-06T14:02:03;3.90;;;3.60;;
13406;SDS011;6774;48.208;10.766;2024-01-06T14:04:34;4.40;;;2.63;;
13406;SDS011;6774;48.208;10.766;2024-01-06T14:07:02;2.53;;;2.37;;
13406;SDS011;6774;48.208;10.766;2024-01-06T14:09:31;2.20;;;2.10;;
13406;SDS011;6774;48.208;10.766;2024-01-06T14:12:00;2.60;;;2.40;;
13406;SDS011;6774;48.208;10.766;2024-01-06T14:14:28;2.80;;;2.60;;
13406;SDS011;6774;48.208;10.766;2024-01-06T14:16:57;2.67;;;2.50;;
13406;SDS011;6774;48.208;10.766;2024-01-06T14:19:25;2.23;;;2.10;;
13406;SDS011;6774;48.208;10.766;2024-01-06T14:21:53;2.27;;;2.17;;
13406;SDS011;6774;48.208;10.766;2024-01-06T14:24:21;2.30;;;2.20;;
13406;SDS011;6774;48.208;10.766;2024-01-06T14:26:51;2.60;;;2.20;;
13406;SDS011;6774;48.208;10.766;2024-01-06T14:29:19;1.90;;;1.80;;
13406;SDS011;6774;48.208;10.766;2024-01-06T14:31:47;1.57;;;1.47;;
13406;SDS011;6774;48.208;10.766;2024-01-06T14:34:17;2.67;;;2.47;;
13406;SDS011;6774;48.208;10.766;2024-01-06T14:36:45;2.43;;;2.33;;
13406;SDS011;6774;48.208;10.766;2024-01-06T14:39:15;2.27;;;2.17;;
13406;SDS011;6774;48.208;10.766;2024-01-06T14:41:45;5.43;;;4.63;;
13406;SDS011;6774;48.208;10.766;2024-01-06T14:44:13;4.10;;;3.70;;
13406;SDS011;6774;48.208;10.766;2024-01-06T14:46:41;2.80;;;2.60;;
13406;SDS011;6774;48.208;10.766;2024-01-06T14:49:09;2.40;;;2.30;;
13406;SDS011;6774;48.208;10.766;2024-01-06T14:51:38;3.17;;;2.97;;
13406;SDS011;6774;48.208;10.766;2024-01-06T14:54:06;2.57;;;2.47;;
13406;SDS011;6774;48.208;10.766;2024-01-06T14:56:38;3.37;;;3.17;;
13406;SDS011;6774;48.208;10.766;2024-01-06T14:59:06;5.30;;;4.90;;